Time;durP1;ratioP1;P1;durP2;ratioP2;P2;SDS_P1;SDS_P2;PMS_P1;PMS_P2;Temp;Humidity;BMP_temperature;BMP_pressure;BME280_temperature;BME280_humidity;BME280_pressure;Samples;Min_cycle;Max_cycle;Signal;HPM_P1;HPM_P2
2022/05/12 00:02:25;;;;;;;133.95;126.75;;;;;;;11.35;100.00;100081.16;5061103;28;20049;-81
2022/05/12 00:04:54;;;;;;;165.55;156.65;;;;;;;11.20;100.00;100087.69;5063097;28;20044;-80
2022/05/12 00:07:28;;;;;;;289.17;272.45;;;;;;;11.33;100.00;100077.13;5045032;28;20417;-80
2022/05/12 00:10:01;;;;;;;535.67;501.30;;;;;;;11.25;100.00;100086.78;5051114;28;20045;-80
2022/05/12 00:12:35;;;;;;;1116.35;999.90;;;;;;;11.08;100.00;100086.53;5061702;28;20052;-80
2022/05/12 00:15:06;;;;;;;1164.78;999.90;;;;;;;11.28;100.00;100088.91;5066790;28;20048;-80
2022/05/12 00:17:41;;;;;;;1211.47;999.90;;;;;;;11.20;100.00;100084.16;5047544;28;20049;-79
2022/05/12 00:20:11;;;;;;;1227.10;999.90;;;;;;;11.21;100.00;100083.03;5050298;28;20051;-80
2022/05/12 00:22:45;;;;;;;1232.88;999.90;;;;;;;11.17;100.00;100099.19;5051389;28;20056;-80
2022/05/12 00:25:20;;;;;;;1256.70;999.90;;;;;;;11.26;100.00;100107.47;5062535;28;20064;-80
2022/05/12 00:27:54;;;;;;;1271.88;999.90;;;;;;;11.25;100.00;100089.50;5073801;28;20044;-80
2022/05/12 00:30:22;;;;;;;1276.38;999.90;;;;;;;11.25;100.00;100085.97;5068303;28;20401;-80
2022/05/12 00:32:57;;;;;;;1289.43;999.90;;;;;;;11.23;100.00;100073.47;5071130;28;20392;-80
2022/05/12 00:35:30;;;;;;;1299.40;999.90;;;;;;;11.29;100.00;100059.75;5052487;28;20048;-80
2022/05/12 00:38:03;;;;;;;1300.20;999.90;;;;;;;11.26;100.00;100066.63;5064616;28;20048;-80
2022/05/12 00:40:38;;;;;;;1301.60;999.90;;;;;;;11.20;100.00;100065.09;5066692;28;20048;-79
2022/05/12 00:43:33;;;;;;;1303.35;999.90;;;;;;;11.13;100.00;100075.53;5074165;28;20047;-80
2022/05/12 00:46:09;;;;;;;1303.45;999.90;;;;;;;11.17;100.00;100065.66;5068886;28;20043;-81
2022/05/12 00:48:45;;;;;;;1314.78;999.90;;;;;;;11.21;100.00;100072.97;5043794;28;20060;-81
2022/05/12 00:51:23;;;;;;;1322.75;999.90;;;;;;;11.15;100.00;100062.47;5068151;28;20052;-81
2022/05/12 00:53:57;;;;;;;;;;;;;;;11.14;100.00;100055.38;5062721;28;20053;-80
2022/05/12 00:56:34;;;;;;;1302.80;999.90;;;;;;;11.19;100.00;100044.41;5073994;28;19920;-80
2022/05/12 00:59:12;;;;;;;1342.05;999.90;;;;;;;11.20;100.00;100049.56;5073245;28;20040;-80
2022/05/12 01:01:45;;;;;;;;;;;;;;;11.21;100.00;100043.00;5082692;28;20044;-80
2022/05/12 01:04:21;;;;;;;1346.22;999.90;;;;;;;11.15;100.00;100036.03;5064934;28;19932;-80
2022/05/12 01:06:54;;;;;;;1413.90;999.90;;;;;;;11.18;100.00;100040.06;5050669;28;20135;-80
2022/05/12 01:09:28;;;;;;;1537.60;999.90;;;;;;;11.30;100.00;100045.03;5070961;28;20044;-79
2022/05/12 01:12:02;;;;;;;1632.25;999.90;;;;;;;11.26;100.00;100041.31;5055231;28;20048;-81
2022/05/12 01:14:36;;;;;;;1722.72;999.90;;;;;;;11.36;100.00;100052.78;5055398;28;20052;-80
2022/05/12 01:17:09;;;;;;;1782.00;999.90;;;;;;;11.36;100.00;100063.69;5065758;28;20056;-80
2022/05/12 01:19:43;;;;;;;1828.57;999.90;;;;;;;11.36;100.00;100060.97;5050279;28;20397;-81
2022/05/12 01:22:35;;;;;;;1899.43;999.90;;;;;;;11.33;100.00;100056.13;5052052;28;20048;-80
2022/05/12 01:25:11;;;;;;;1952.80;999.90;;;;;;;11.37;100.00;100056.34;5053815;28;20052;-80
2022/05/12 01:27:45;;;;;;;1999.90;999.90;;;;;;;11.40;100.00;100050.28;5061765;28;20044;-81
2022/05/12 01:30:21;;;;;;;1999.90;999.90;;;;;;;11.41;100.00;100054.63;5073385;28;20067;-80
2022/05/12 01:32:50;;;;;;;1999.90;999.90;;;;;;;11.42;100.00;100053.53;5064133;28;20044;-80
2022/05/12 01:35:25;;;;;;;1999.90;999.90;;;;;;;11.43;100.00;100057.84;5045919;28;20053;-80
2022/05/12 01:37:59;;;;;;;1999.90;999.90;;;;;;;11.53;100.00;100062.31;5070368;28;20040;-80
2022/05/12 01:40:29;;;;;;;1999.90;999.90;;;;;;;11.58;100.00;100059.50;5086511;28;20048;-80
2022/05/12 01:43:02;;;;;;;1999.90;999.90;;;;;;;11.57;100.00;100058.69;5073045;28;20421;-82
2022/05/12 01:45:35;;;;;;;1999.90;999.90;;;;;;;11.66;100.00;100077.88;5045901;28;20059;-81
2022/05/12 01:48:11;;;;;;;1999.90;999.90;;;;;;;11.70;100.00;100064.47;5051979;28;20473;-81
2022/05/12 01:50:42;;;;;;;1999.90;999.90;;;;;;;11.72;100.00;100079.41;5045091;28;20059;-80
2022/05/12 01:53:17;;;;;;;1999.90;999.90;;;;;;;11.65;100.00;100080.91;5063126;28;20056;-80
2022/05/12 01:55:52;;;;;;;1999.90;999.90;;;;;;;11.86;100.00;100068.50;5066852;28;20444;-80
2022/05/12 01:58:21;;;;;;;1999.90;999.90;;;;;;;11.82;100.00;100069.38;5070805;28;20049;-81
2022/05/12 02:00:50;;;;;;;1999.90;999.90;;;;;;;11.81;100.00;100073.25;5047617;28;20056;-80
2022/05/12 02:03:24;;;;;;;1999.90;999.90;;;;;;;11.82;100.00;100074.84;5061999;28;20041;-80
2022/05/12 02:05:57;;;;;;;1999.90;999.90;;;;;;;11.78;100.00;100077.38;5046038;28;20056;-80
2022/05/12 02:08:30;;;;;;;1999.90;999.90;;;;;;;11.77;100.00;100077.69;5059868;28;20412;-80
2022/05/12 02:11:05;;;;;;;1999.90;999.90;;;;;;;11.80;100.00;100080.59;5071645;28;20051;-79
2022/05/12 02:13:38;;;;;;;1999.90;999.90;;;;;;;11.73;100.00;100074.75;5046187;28;20057;-81
2022/05/12 02:16:11;;;;;;;1999.90;999.90;;;;;;;11.77;100.00;100077.69;5041957;28;20064;-80
2022/05/12 02:18:44;;;;;;;1999.90;999.90;;;;;;;11.68;100.00;100067.50;5063664;28;20048;-80
2022/05/12 02:21:18;;;;;;;1999.90;999.90;;;;;;;11.61;100.00;100067.06;5048004;28;20058;-79
2022/05/12 02:23:51;;;;;;;1999.90;999.90;;;;;;;11.64;100.00;100080.09;5043037;28;20056;-79
2022/05/12 02:26:26;;;;;;;1999.90;999.90;;;;;;;11.58;100.00;100086.75;5046456;28;20053;-80
2022/05/12 02:29:00;;;;;;;1999.90;999.90;;;;;;;11.56;100.00;100103.41;5042585;28;20052;-79
2022/05/12 02:31:33;;;;;;;1999.90;999.90;;;;;;;11.66;100.00;100098.88;5060583;28;20047;-79
2022/05/12 02:34:06;;;;;;;1999.90;999.90;;;;;;;11.70;100.00;100091.72;5044347;28;20051;-80
2022/05/12 02:36:40;;;;;;;1999.90;999.90;;;;;;;11.70;100.00;100089.00;5044546;28;20056;-80
2022/05/12 02:39:13;;;;;;;1999.90;999.90;;;;;;;11.71;100.00;100096.88;5068778;28;20049;-79
2022/05/12 02:41:47;;;;;;;1999.90;999.90;;;;;;;11.78;100.00;100095.63;5071766;28;20041;-79
2022/05/12 02:44:21;;;;;;;1999.90;999.90;;;;;;;11.78;100.00;100099.19;5051126;28;20063;-79
2022/05/12 02:46:54;;;;;;;1999.90;999.90;;;;;;;11.83;100.00;100101.78;5060727;28;20060;-80
2022/05/12 02:49:27;;;;;;;1999.90;999.90;;;;;;;11.80;100.00;100099.69;5048750;28;20052;-79
2022/05/12 02:52:00;;;;;;;1999.90;999.90;;;;;;;11.83;100.00;100109.19;5061009;28;20053;-79
2022/05/12 02:54:29;;;;;;;1999.90;999.90;;;;;;;11.82;100.00;100123.91;5065752;28;20097;-79
2022/05/12 02:57:04;;;;;;;1999.90;999.90;;;;;;;11.85;100.00;100134.25;5055240;28;20067;-79
2022/05/12 02:59:38;;;;;;;1999.90;999.90;;;;;;;11.76;100.00;100131.38;5044933;28;20056;-80
2022/05/12 03:02:11;;;;;;;1999.90;999.90;;;;;;;11.66;100.00;100143.28;5046426;28;20048;-80
2022/05/12 03:04:44;;;;;;;1999.90;999.90;;;;;;;11.63;100.00;100151.25;5069644;28;20044;-80
2022/05/12 03:07:19;;;;;;;1999.90;999.90;;;;;;;11.57;100.00;100162.25;5047944;28;20048;-78
2022/05/12 03:09:52;;;;;;;1999.90;999.90;;;;;;;11.55;100.00;100183.53;5062469;28;20052;-79
2022/05/12 03:12:27;;;;;;;1999.90;999.90;;;;;;;11.56;100.00;100198.78;5061375;28;20055;-79
2022/05/12 03:15:00;;;;;;;1999.90;999.90;;;;;;;11.57;100.00;100207.75;5045724;28;20420;-80
2022/05/12 03:17:35;;;;;;;1999.90;999.90;;;;;;;11.57;100.00;100208.59;5040071;28;20456;-79
2022/05/12 03:20:11;;;;;;;1999.90;999.90;;;;;;;11.59;100.00;100240.97;5064664;28;20044;-80
2022/05/12 03:22:40;;;;;;;1999.90;999.90;;;;;;;11.60;100.00;100245.34;5063264;28;20045;-79
2022/05/12 03:25:15;;;;;;;1999.90;999.90;;;;;;;11.48;100.00;100270.31;5046604;28;20049;-79
2022/05/12 03:27:50;;;;;;;1999.90;999.90;;;;;;;11.25;100.00;100293.78;5046614;28;20404;-79
2022/05/12 03:30:22;;;;;;;1999.90;999.90;;;;;;;11.14;100.00;100295.03;5068423;28;20049;-80
2022/05/12 03:32:55;;;;;;;1999.90;999.90;;;;;;;10.98;100.00;100313.47;5064680;28;20056;-80
2022/05/12 03:35:29;;;;;;;1999.90;999.90;;;;;;;10.74;100.00;100332.56;5043226;28;20060;-79
2022/05/12 03:38:02;;;;;;;1999.90;999.90;;;;;;;10.61;100.00;100340.31;5044668;28;20382;-79
2022/05/12 03:40:36;;;;;;;1999.90;999.90;;;;;;;10.63;100.00;100359.06;5063156;28;20048;-79
2022/05/12 03:43:10;;;;;;;1999.90;999.90;;;;;;;10.62;100.00;100368.31;5051901;28;20057;-80
2022/05/12 03:45:42;;;;;;;1999.90;999.90;;;;;;;10.49;100.00;100369.81;5044856;28;20130;-79
2022/05/12 03:48:15;;;;;;;1999.90;999.90;;;;;;;10.61;100.00;100385.78;5046282;28;20395;-80
2022/05/12 03:50:44;;;;;;;1999.90;999.90;;;;;;;10.59;100.00;100386.03;5061480;28;20048;-80
2022/05/12 03:53:17;;;;;;;1999.90;999.90;;;;;;;10.53;100.00;100382.56;5050869;28;20056;-79
2022/05/12 03:55:51;;;;;;;1999.90;999.90;;;;;;;10.56;100.00;100402.94;5045246;28;20063;-79
2022/05/12 03:58:25;;;;;;;1999.90;999.90;;;;;;;10.60;100.00;100411.34;5048833;28;20055;-79
2022/05/12 04:00:54;;;;;;;1999.90;999.90;;;;;;;10.58;100.00;100427.13;5053435;28;20057;-79
2022/05/12 04:03:27;;;;;;;1999.90;999.90;;;;;;;10.52;100.00;100429.94;5067552;28;20040;-80
2022/05/12 04:06:02;;;;;;;1999.90;999.90;;;;;;;10.51;100.00;100433.75;5068385;28;20048;-79
2022/05/12 04:08:36;;;;;;;1999.90;999.90;;;;;;;10.63;100.00;100446.16;5063212;28;20397;-79
2022/05/12 04:11:10;;;;;;;1999.90;999.90;;;;;;;10.52;100.00;100445.41;5055607;28;20052;-80
2022/05/12 04:13:45;;;;;;;1999.90;999.90;;;;;;;10.57;100.00;100467.16;5067957;28;20052;-79
2022/05/12 04:16:18;;;;;;;1999.90;999.90;;;;;;;10.55;100.00;100472.88;5065466;28;20052;-79
2022/05/12 04:18:52;;;;;;;1999.90;999.90;;;;;;;10.46;100.00;100480.03;5048718;28;20503;-79
2022/05/12 04:21:26;;;;;;;1999.90;999.90;;;;;;;10.36;100.00;100499.97;5064938;28;20476;-79
2022/05/12 04:23:59;;;;;;;1999.90;999.90;;;;;;;10.41;100.00;100496.38;5087305;28;20044;-79
2022/05/12 04:26:33;;;;;;;1999.90;999.90;;;;;;;10.49;100.00;100505.84;5072557;28;20040;-79
2022/05/12 04:29:08;;;;;;;1999.90;999.90;;;;;;;10.66;100.00;100519.06;5066184;28;20071;-79
2022/05/12 04:31:42;;;;;;;1999.90;999.90;;;;;;;10.52;100.00;100513.44;5052034;28;20057;-79
2022/05/12 04:37:06;;;;;;;1999.90;999.90;;;;;;;10.52;100.00;100510.72;5066397;28;20048;-80
2022/05/12 04:39:39;;;;;;;1999.90;999.90;;;;;;;10.59;100.00;100529.44;5039849;28;20063;-79
2022/05/12 04:42:12;;;;;;;1999.90;999.90;;;;;;;10.68;100.00;100530.47;5055220;28;20059;-79
2022/05/12 04:44:47;;;;;;;1999.90;999.90;;;;;;;10.68;100.00;100535.94;5039039;28;20055;-79
2022/05/12 04:47:20;;;;;;;1999.90;999.90;;;;;;;10.70;100.00;100537.28;5070764;28;20481;-80
2022/05/12 04:49:55;;;;;;;1999.90;999.90;;;;;;;10.67;100.00;100540.53;5050374;28;20051;-80
2022/05/12 04:52:23;;;;;;;1999.90;999.90;;;;;;;10.73;100.00;100560.38;5082953;28;20048;-80
2022/05/12 04:54:57;;;;;;;1999.90;999.90;;;;;;;10.74;100.00;100562.00;5071026;28;20045;-80
2022/05/12 04:57:36;;;;;;;1999.90;999.90;;;;;;;10.72;100.00;100565.00;5046664;28;20052;-79
2022/05/12 05:00:14;;;;;;;1999.90;999.90;;;;;;;10.67;100.00;100586.81;5052222;28;20461;-78
2022/05/12 05:02:48;;;;;;;1972.10;999.90;;;;;;;10.74;100.00;100599.28;5038203;28;20056;-79
2022/05/12 05:05:22;;;;;;;1896.88;999.90;;;;;;;10.80;100.00;100598.16;5045461;28;20064;-79
2022/05/12 05:07:50;;;;;;;1837.70;999.90;;;;;;;11.15;100.00;100607.97;5065369;28;20045;-79
2022/05/12 05:10:19;;;;;;;1794.95;999.90;;;;;;;11.64;100.00;100610.78;5051542;28;20048;-79
2022/05/12 05:12:53;;;;;;;1712.22;999.90;;;;;;;11.38;100.00;100608.31;5046916;28;20056;-79
2022/05/12 05:15:27;;;;;;;1648.70;999.90;;;;;;;11.50;100.00;100618.81;5055576;28;20053;-79
2022/05/12 05:18:01;;;;;;;1618.38;999.90;;;;;;;11.40;100.00;100631.44;5061484;28;20060;-79
2022/05/12 05:20:30;;;;;;;1543.85;999.90;;;;;;;11.19;100.00;100627.28;5046328;28;20056;-79
2022/05/12 05:23:03;;;;;;;1533.55;999.90;;;;;;;11.11;100.00;100638.78;5065376;28;20052;-79
2022/05/12 05:25:37;;;;;;;1493.00;999.90;;;;;;;11.02;100.00;100636.66;5080614;28;20059;-79
2022/05/12 05:28:05;;;;;;;1423.38;999.90;;;;;;;11.08;100.00;100642.09;5070921;28;20048;-79
2022/05/12 05:30:41;;;;;;;1406.45;999.90;;;;;;;11.10;100.00;100646.13;5044596;28;20056;-79
2022/05/12 05:33:15;;;;;;;1384.00;999.90;;;;;;;11.05;100.00;100640.75;5066454;28;20052;-80
2022/05/12 05:35:48;;;;;;;1369.32;999.90;;;;;;;11.03;100.00;100648.34;5043076;28;20053;-80
2022/05/12 05:38:21;;;;;;;1360.03;999.90;;;;;;;11.00;100.00;100662.56;5047104;28;20194;-80
2022/05/12 05:40:55;;;;;;;1341.32;999.90;;;;;;;11.14;100.00;100662.72;5042947;28;20061;-80
2022/05/12 05:43:28;;;;;;;1331.60;999.90;;;;;;;11.56;100.00;100666.75;5043850;28;20493;-79
2022/05/12 05:46:03;;;;;;;1336.28;999.90;;;;;;;11.91;100.00;100672.94;5065471;28;20051;-79
2022/05/12 05:48:32;;;;;;;1343.35;999.90;;;;;;;12.21;100.00;100676.47;5061518;28;20056;-80
2022/05/12 05:53:54;;;;;;;1308.32;999.90;;;;;;;12.30;100.00;100671.16;5061457;28;20051;-80
2022/05/12 05:56:22;;;;;;;1286.90;999.90;;;;;;;12.24;100.00;100679.41;5076312;28;20056;-80
2022/05/12 05:58:51;;;;;;;1264.45;999.90;;;;;;;12.17;100.00;100692.59;5063646;28;20512;-78
2022/05/12 06:01:20;;;;;;;1248.45;999.90;;;;;;;11.87;100.00;100704.59;5062697;28;20052;-79
2022/05/12 06:03:56;;;;;;;115.65;109.63;;;;;;;12.00;100.00;100695.78;5048626;28;20433;-79
2022/05/12 06:06:29;;;;;;;10.25;9.55;;;;;;;11.91;100.00;100709.19;5064614;28;20423;-79
2022/05/12 06:09:03;;;;;;;6.57;6.07;;;;;;;12.18;100.00;100716.06;5063744;28;20432;-80
2022/05/12 06:11:36;;;;;;;3.30;3.10;;;;;;;12.18;100.00;100731.59;5045911;28;20420;-79
2022/05/12 06:14:10;;;;;;;2.33;2.20;;;;;;;12.04;100.00;100726.84;5059557;28;20785;-79
2022/05/12 06:16:44;;;;;;;1.90;1.80;;;;;;;12.32;100.00;100732.53;5050413;28;20427;-79
2022/05/12 06:19:18;;;;;;;1.52;1.42;;;;;;;12.35;100.00;100737.41;5056821;28;20425;-79
2022/05/12 06:21:51;;;;;;;1.20;1.20;;;;;;;12.10;100.00;100748.59;5054874;28;20441;-80
2022/05/12 06:24:25;;;;;;;1.20;1.10;;;;;;;12.36;100.00;100747.22;5039962;28;20430;-80
2022/05/12 06:26:58;;;;;;;0.90;0.90;;;;;;;12.58;100.00;100754.88;5039512;28;20992;-79
2022/05/12 06:29:31;;;;;;;0.90;0.90;;;;;;;12.39;100.00;100759.47;5039721;28;20447;-80
2022/05/12 06:32:07;;;;;;;1.10;1.00;;;;;;;12.63;100.00;100758.66;5047678;28;20510;-79
2022/05/12 06:34:42;;;;;;;1.10;1.10;;;;;;;12.97;100.00;100766.69;5047256;28;20465;-80
2022/05/12 06:37:11;;;;;;;0.90;0.90;;;;;;;13.00;100.00;100784.41;5040486;28;20420;-80
2022/05/12 06:39:44;;;;;;;0.88;0.80;;;;;;;12.79;100.00;100772.91;5058408;28;20428;-80
2022/05/12 06:42:13;;;;;;;0.70;0.70;;;;;;;12.82;100.00;100778.63;5050198;28;20435;-79
2022/05/12 06:44:46;;;;;;;0.80;0.80;;;;;;;12.93;100.00;100790.25;5029578;28;20521;-79
2022/05/12 06:47:20;;;;;;;1.38;0.93;;;;;;;13.37;100.00;100793.78;5027115;28;20422;-80
2022/05/12 06:49:51;;;;;;;1.00;1.00;;;;;;;13.55;100.00;100790.22;5026124;28;20428;-80
2022/05/12 06:52:24;;;;;;;0.70;0.70;;;;;;;13.46;100.00;100789.25;5043495;28;20419;-80
2022/05/12 06:54:57;;;;;;;1.00;0.70;;;;;;;13.20;100.00;100786.03;5020195;28;20435;-79
2022/05/12 06:57:33;;;;;;;2.10;0.70;;;;;;;12.82;100.00;100799.66;5040467;28;20434;-79
2022/05/12 07:00:08;;;;;;;0.50;0.50;;;;;;;13.09;100.00;100805.31;5027004;28;20469;-80
2022/05/12 07:02:44;;;;;;;0.68;0.68;;;;;;;13.44;100.00;100810.63;5024631;28;20431;-80
2022/05/12 07:05:21;;;;;;;0.70;0.70;;;;;;;13.48;100.00;100814.38;5036073;28;20520;-80
2022/05/12 07:07:55;;;;;;;0.60;0.60;;;;;;;13.31;100.00;100816.78;5026510;28;20878;-81
2022/05/12 07:10:29;;;;;;;0.50;0.50;;;;;;;13.33;100.00;100822.78;5027082;28;20439;-81
2022/05/12 07:12:57;;;;;;;0.50;0.50;;;;;;;13.14;100.00;100828.22;5031497;28;20785;-81
2022/05/12 07:15:30;;;;;;;0.80;0.50;;;;;;;13.49;100.00;100829.69;5029538;28;20420;-80
2022/05/12 07:18:00;;;;;;;0.60;0.60;;;;;;;13.84;100.00;100829.44;5021017;28;20776;-80
2022/05/12 07:26:39;;;;;;;0.50;0.50;;;;;;;13.78;100.00;100845.91;4980691;28;21179;-81
2022/05/12 07:29:14;;;;;;;0.85;0.47;;;;;;;13.77;100.00;100849.75;5037089;28;20436;-81
2022/05/12 07:31:49;;;;;;;0.70;0.52;;;;;;;13.66;100.00;100867.44;5022174;28;20420;-81
2022/05/12 07:34:23;;;;;;;0.50;0.50;;;;;;;14.01;100.00;100875.41;5037757;28;20431;-80
2022/05/12 07:36:57;;;;;;;0.50;0.50;;;;;;;13.97;100.00;100871.63;5036605;28;20788;-80
2022/05/12 07:39:28;;;;;;;0.90;0.50;;;;;;;14.15;100.00;100878.19;5017445;28;20435;-81
2022/05/12 07:41:58;;;;;;;0.70;0.40;;;;;;;13.89;100.00;100881.31;5022272;28;20446;-80
2022/05/12 07:44:32;;;;;;;0.40;0.40;;;;;;;13.73;100.00;100903.44;5018479;28;20923;-81
2022/05/12 07:47:01;;;;;;;0.70;0.40;;;;;;;13.50;100.00;100894.16;5035890;28;20423;-79
2022/05/12 07:49:37;;;;;;;0.43;0.43;;;;;;;13.49;100.00;100897.19;5047935;28;20427;-80
2022/05/12 07:52:07;;;;;;;0.50;0.50;;;;;;;13.42;100.00;100900.28;5039585;28;20427;-79
2022/05/12 07:54:40;;;;;;;0.50;0.50;;;;;;;13.69;100.00;100907.06;5017383;28;20435;-81
2022/05/12 07:57:13;;;;;;;0.50;0.50;;;;;;;13.73;100.00;100908.91;5017955;28;20428;-81
2022/05/12 07:59:47;;;;;;;0.90;0.57;;;;;;;13.60;100.00;100915.94;5037404;28;20431;-81
2022/05/12 08:02:20;;;;;;;0.43;0.40;;;;;;;13.55;100.00;100923.38;5023905;28;20427;-81
2022/05/12 08:04:54;;;;;;;0.40;0.40;;;;;;;13.72;100.00;100926.41;5020376;28;20490;-81
2022/05/12 08:07:29;;;;;;;0.50;0.40;;;;;;;13.73;100.00;100928.03;5037915;28;20431;-80
2022/05/12 08:10:05;;;;;;;0.32;0.32;;;;;;;13.82;100.00;100921.91;5023859;28;20431;-80
2022/05/12 08:12:38;;;;;;;0.60;0.50;;;;;;;13.70;100.00;100928.63;5035214;28;20501;-81
2022/05/12 08:15:12;;;;;;;0.40;0.40;;;;;;;13.75;100.00;100931.31;5020956;28;20923;-80
2022/05/12 08:17:40;;;;;;;0.40;0.40;;;;;;;13.52;100.00;100929.41;5023683;28;21413;-81
2022/05/12 08:20:15;;;;;;;0.50;0.50;;;;;;;13.64;100.00;100932.53;5038692;28;20499;-79
2022/05/12 08:22:48;;;;;;;1.40;0.50;;;;;;;14.08;100.00;100936.03;5024639;28;20434;-80
2022/05/12 08:25:21;;;;;;;0.40;0.40;;;;;;;14.20;100.00;100935.59;5038155;28;20416;-81
2022/05/12 08:27:50;;;;;;;0.45;0.32;;;;;;;13.85;100.00;100935.00;5023422;28;20465;-80
2022/05/12 08:30:19;;;;;;;0.40;0.40;;;;;;;14.07;100.00;100946.16;5035459;28;20431;-80
2022/05/12 08:32:48;;;;;;;0.40;0.40;;;;;;;14.40;100.00;100948.09;5021887;28;20432;-81
2022/05/12 08:35:22;;;;;;;0.70;0.50;;;;;;;14.67;100.00;100944.66;5037650;28;20446;-80
2022/05/12 08:37:56;;;;;;;0.40;0.40;;;;;;;14.85;100.00;100951.19;5023509;28;20442;-81
2022/05/12 08:40:36;;;;;;;0.40;0.40;;;;;;;14.57;100.00;100967.53;5044878;28;20423;-81
2022/05/12 08:43:14;;;;;;;0.60;0.40;;;;;;;14.81;100.00;100958.41;5026053;28;21940;-83
2022/05/12 08:45:50;;;;;;;0.60;0.40;;;;;;;15.14;100.00;100972.03;5025749;28;21182;-81
2022/05/12 08:48:24;;;;;;;0.40;0.40;;;;;;;15.04;100.00;100955.78;5043976;28;20431;-82
2022/05/12 08:50:59;;;;;;;0.40;0.40;;;;;;;14.66;100.00;100967.69;5043707;28;21680;-81
2022/05/12 08:53:43;;;;;;;0.30;0.30;;;;;;;15.17;100.00;100974.16;5022251;28;20435;-81
2022/05/12 08:56:21;;;;;;;0.30;0.30;;;;;;;15.36;100.00;100970.53;5028727;28;20439;-81
2022/05/12 08:58:56;;;;;;;0.40;0.40;;;;;;;14.99;100.00;100975.06;5025882;28;20436;-82
2022/05/12 09:01:37;;;;;;;0.50;0.40;;;;;;;14.75;100.00;100968.63;5035576;28;20435;-79
2022/05/12 09:04:36;;;;;;;0.30;0.30;;;;;;;14.75;100.00;100971.38;5025702;28;20423;-80
2022/05/12 09:07:18;;;;;;;0.30;0.30;;;;;;;15.07;100.00;100982.59;5025121;28;20424;-81
2022/05/12 09:09:55;;;;;;;0.32;0.32;;;;;;;14.78;100.00;100976.25;5058010;28;20428;-81
2022/05/12 09:12:38;;;;;;;0.38;0.38;;;;;;;15.34;100.00;100994.69;5054021;28;20419;-82
2022/05/12 09:15:10;;;;;;;0.50;0.50;;;;;;;15.37;100.00;100988.59;5031840;28;20431;-81
2022/05/12 09:17:44;;;;;;;0.40;0.40;;;;;;;15.69;100.00;100990.41;5029850;28;20424;-83
2022/05/12 09:20:18;;;;;;;0.40;0.40;;;;;;;16.35;100.00;100981.84;5022696;28;20436;-81
2022/05/12 09:22:52;;;;;;;0.50;0.50;;;;;;;15.66;100.00;100985.56;5029388;28;20419;-81
2022/05/12 09:25:32;;;;;;;0.43;0.43;;;;;;;15.76;100.00;100987.25;5044503;28;20439;-81
2022/05/12 09:28:26;;;;;;;0.52;0.52;;;;;;;15.92;100.00;100982.25;5025014;28;21037;-82
2022/05/12 09:31:02;;;;;;;0.45;0.40;;;;;;;15.69;100.00;100984.09;5047920;28;20426;-80
2022/05/12 09:33:38;;;;;;;0.60;0.30;;;;;;;15.81;100.00;100982.50;5046972;28;20431;-81
2022/05/12 09:36:09;;;;;;;1.47;0.43;;;;;;;15.98;100.00;100981.84;5042386;28;20435;-79
2022/05/12 09:38:46;;;;;;;0.30;0.30;;;;;;;16.29;100.00;100972.88;5041735;28;20427;-80
2022/05/12 09:41:22;;;;;;;0.50;0.35;;;;;;;15.94;100.00;100997.31;5024155;28;20439;-79
2022/05/12 09:43:55;;;;;;;0.35;0.35;;;;;;;15.49;100.00;100999.88;5050018;28;20415;-79
2022/05/12 09:46:30;;;;;;;0.40;0.40;;;;;;;15.34;100.00;101003.72;5044731;28;21868;-81
2022/05/12 09:49:17;;;;;;;0.40;0.38;;;;;;;15.81;100.00;100990.72;5026720;28;20423;-79
2022/05/12 09:51:52;;;;;;;0.60;0.40;;;;;;;16.12;100.00;100979.06;5023025;28;20458;-80
2022/05/12 09:54:29;;;;;;;0.40;0.40;;;;;;;16.04;100.00;100984.47;5016922;28;20442;-78
2022/05/12 09:57:14;;;;;;;0.55;0.40;;;;;;;16.55;100.00;100988.75;5019889;28;20471;-79
2022/05/12 09:59:45;;;;;;;0.65;0.40;;;;;;;16.59;100.00;100998.00;5019805;28;20490;-80
2022/05/12 10:08:22;;;;;;;0.50;0.50;;;;;;;15.66;100.00;101002.00;5045869;28;20426;-79
2022/05/12 10:11:00;;;;;;;0.40;0.40;;;;;;;16.26;100.00;100997.44;5023997;28;20435;-79
2022/05/12 10:13:36;;;;;;;0.50;0.50;;;;;;;16.62;100.00;100999.31;5024431;28;20434;-81
2022/05/12 10:16:10;;;;;;;0.43;0.43;;;;;;;15.99;100.00;100999.13;5046103;28;20432;-80
2022/05/12 10:18:47;;;;;;;0.40;0.40;;;;;;;15.61;100.00;100999.38;5046534;28;20432;-80
2022/05/12 10:21:25;;;;;;;0.30;0.30;;;;;;;15.61;100.00;101019.38;5055490;28;20408;-80
2022/05/12 10:24:07;;;;;;;0.30;0.30;;;;;;;15.74;100.00;100997.72;5025472;28;20479;-80
2022/05/12 10:26:48;;;;;;;0.40;0.40;;;;;;;15.94;100.00;101012.97;5043794;28;20442;-80
2022/05/12 10:29:36;;;;;;;0.47;0.40;;;;;;;16.83;100.00;101000.44;5044180;28;20442;-81
2022/05/12 10:32:34;;;;;;;0.30;0.30;;;;;;;16.36;93.09;100997.16;5045199;28;20823;-80
2022/05/12 10:35:12;;;;;;;1.73;0.40;;;;;;;16.31;96.51;101000.88;5047076;28;20443;-79
2022/05/12 10:37:56;;;;;;;0.50;0.30;;;;;;;15.76;99.96;101000.97;5045290;28;20425;-78
2022/05/12 10:40:33;;;;;;;0.23;0.23;;;;;;;16.39;91.58;101006.72;5043109;28;21389;-79
2022/05/12 10:43:34;;;;;;;0.30;0.30;;;;;;;15.82;92.32;101013.50;5046404;28;20422;-81
2022/05/12 10:46:14;;;;;;;0.50;0.30;;;;;;;16.40;100.00;101011.91;5042138;28;20439;-79
2022/05/12 10:48:50;;;;;;;0.37;0.30;;;;;;;17.02;85.15;101006.84;5053640;28;20436;-79
2022/05/12 10:51:32;;;;;;;0.20;0.20;;;;;;;17.63;89.98;100996.88;5023280;28;20528;-79
2022/05/12 10:54:20;;;;;;;0.50;0.30;;;;;;;17.40;90.01;101004.44;5041834;28;20427;-80
2022/05/12 10:57:06;;;;;;;0.30;0.30;;;;;;;16.92;94.14;101013.44;5026901;28;20431;-80
2022/05/12 11:00:08;;;;;;;0.30;0.30;;;;;;;17.21;79.18;101001.94;5044657;28;20408;-79
2022/05/12 11:02:43;;;;;;;0.30;0.30;;;;;;;17.73;86.72;101001.31;5007968;28;20439;-79
2022/05/12 11:05:27;;;;;;;0.40;0.30;;;;;;;17.62;78.09;100995.28;5032655;28;20432;-79
2022/05/12 11:08:10;;;;;;;0.30;0.30;;;;;;;17.59;77.01;100998.66;5026440;28;20431;-82
2022/05/12 11:10:44;;;;;;;0.25;0.25;;;;;;;16.90;80.69;101010.19;5049459;28;20411;-80
2022/05/12 11:13:26;;;;;;;0.30;0.30;;;;;;;16.50;73.06;101010.84;5024843;28;20435;-80
2022/05/12 11:16:04;;;;;;;0.30;0.30;;;;;;;16.37;79.06;101009.00;5034613;28;20428;-79
2022/05/12 11:18:45;;;;;;;0.50;0.20;;;;;;;16.30;85.28;101014.91;5023498;28;20427;-80
2022/05/12 11:21:17;;;;;;;0.22;0.20;;;;;;;16.15;87.85;101011.38;5024781;28;20442;-79
2022/05/12 11:23:58;;;;;;;0.30;0.30;;;;;;;16.48;84.63;101008.41;5028152;28;21128;-80
2022/05/12 11:26:47;;;;;;;0.40;0.30;;;;;;;16.61;80.82;101001.25;5047085;28;20415;-81
2022/05/12 11:32:22;;;;;;;0.30;0.30;;;;;;;16.46;82.33;101007.94;5043063;28;20400;-80
2022/05/12 11:34:59;;;;;;;0.20;0.20;;;;;;;16.69;88.09;101004.38;5054061;28;20423;-78
2022/05/12 11:37:35;;;;;;;0.30;0.30;;;;;;;16.29;86.36;101014.06;5026821;28;20420;-80
2022/05/12 11:40:30;;;;;;;0.30;0.30;;;;;;;16.52;90.43;101010.53;5038194;28;20431;-80
2022/05/12 11:46:18;;;;;;;0.33;0.33;;;;;;;17.15;72.96;101011.44;5023906;28;20819;-80
2022/05/12 11:48:59;;;;;;;0.30;0.30;;;;;;;17.35;73.50;101004.56;5025440;28;20432;-80
2022/05/12 11:51:42;;;;;;;0.30;0.30;;;;;;;17.33;73.97;101006.81;5030775;28;20489;-81
2022/05/12 11:54:23;;;;;;;0.30;0.20;;;;;;;17.63;78.83;101007.88;5025543;28;20431;-79
2022/05/12 11:56:58;;;;;;;0.95;0.38;;;;;;;17.71;77.54;100998.03;5048336;28;20503;-79
2022/05/12 11:59:48;;;;;;;0.30;0.20;;;;;;;17.81;74.89;101005.19;5024512;28;20419;-81